Time;durP1;ratioP1;P1;durP2;ratioP2;P2;SDS_P1;SDS_P2;PMS_P1;PMS_P2;Temp;Humidity;BMP_temperature;BMP_pressure;BME280_temperature;BME280_humidity;BME280_pressure;Samples;Min_cycle;Max_cycle;Signal;HPM_P1;HPM_P2
2023/10/24 00:01:18;;;;;;;21.70;7.57;;;;;;;16.00;82.39;100531.25;5070011;28;20024;-65
2023/10/24 00:03:44;;;;;;;21.48;8.52;;;;;;;16.09;83.26;100533.09;5070449;28;20025;-65
2023/10/24 00:06:09;;;;;;;34.58;9.00;;;;;;;16.07;83.64;100535.66;5070356;28;20085;-68
2023/10/24 00:08:35;;;;;;;20.00;8.65;;;;;;;16.00;84.13;100537.31;5069679;28;20036;-65
2023/10/24 00:11:05;;;;;;;21.77;7.68;;;;;;;16.01;84.57;100525.16;5070132;28;20749;-66
2023/10/24 00:13:31;;;;;;;26.25;8.45;;;;;;;15.90;84.08;100514.59;5070233;28;20029;-67
2023/10/24 00:16:00;;;;;;;22.85;7.53;;;;;;;16.03;83.98;100527.81;5070394;28;20383;-66
2023/10/24 00:18:26;;;;;;;21.58;8.52;;;;;;;15.99;84.15;100527.75;5054946;28;20388;-65
2023/10/24 00:20:52;;;;;;;20.48;7.57;;;;;;;15.97;84.49;100531.19;5050595;28;20041;-66
2023/10/24 00:23:18;;;;;;;21.48;8.20;;;;;;;15.91;84.15;100528.47;5049924;28;20380;-65
2023/10/24 00:25:43;;;;;;;18.00;8.45;;;;;;;15.83;83.70;100523.16;5050339;28;20033;-65
2023/10/24 00:28:09;;;;;;;23.35;9.55;;;;;;;15.61;83.45;100522.75;5049705;28;20395;-65
2023/10/24 00:30:35;;;;;;;27.80;10.48;;;;;;;15.40;84.45;100527.56;5049904;28;20036;-64
2023/10/24 00:33:01;;;;;;;28.08;9.35;;;;;;;15.33;85.48;100518.78;5050176;28;20494;-65
2023/10/24 00:35:26;;;;;;;20.05;8.18;;;;;;;15.37;85.89;100520.59;5032264;28;20127;-66
2023/10/24 00:37:52;;;;;;;18.80;7.70;;;;;;;15.42;86.47;100513.75;5050042;28;20036;-65
2023/10/24 00:40:18;;;;;;;26.38;8.63;;;;;;;15.48;86.16;100508.66;5049551;28;20108;-69
2023/10/24 00:42:44;;;;;;;24.23;8.52;;;;;;;15.40;86.20;100492.00;5050050;28;20025;-65
2023/10/24 00:45:10;;;;;;;21.48;8.32;;;;;;;15.42;86.16;100495.53;5049579;28;20056;-66
2023/10/24 00:47:37;;;;;;;17.83;8.27;;;;;;;15.48;86.45;100494.78;5049973;28;20035;-65
2023/10/24 00:50:03;;;;;;;45.00;10.00;;;;;;;15.51;86.20;100497.41;5032037;28;20069;-69
2023/10/24 00:52:29;;;;;;;28.52;9.65;;;;;;;14.88;85.87;100394.03;5049982;28;20032;-67
2023/10/24 00:54:55;;;;;;;20.42;8.52;;;;;;;15.37;85.75;100502.38;5049908;28;20517;-65
2023/10/24 00:57:21;;;;;;;26.15;9.55;;;;;;;15.38;85.42;100498.94;5065020;28;20109;-66
2023/10/24 00:59:47;;;;;;;22.92;9.48;;;;;;;15.41;85.45;100492.91;5068533;28;20589;-65
2023/10/24 01:02:12;;;;;;;20.92;8.93;;;;;;;15.44;86.05;100488.66;5051970;28;20033;-66
2023/10/24 01:04:39;;;;;;;27.80;9.10;;;;;;;15.41;86.38;100492.91;5069770;28;20025;-65
2023/10/24 01:07:05;;;;;;;24.92;8.82;;;;;;;15.27;87.42;100480.53;5069773;28;20059;-66
2023/10/24 01:09:31;;;;;;;22.17;8.35;;;;;;;15.11;87.95;100494.09;5069035;28;20029;-65
2023/10/24 01:11:57;;;;;;;26.63;9.05;;;;;;;14.94;89.05;100489.47;5069752;28;20095;-65
2023/10/24 01:14:23;;;;;;;20.58;8.80;;;;;;;14.84;89.59;100491.00;5053323;28;20029;-65
2023/10/24 01:16:49;;;;;;;20.48;9.60;;;;;;;14.35;89.41;100407.72;5053103;28;20410;-65
2023/10/24 01:19:15;;;;;;;21.42;7.72;;;;;;;14.78;88.04;100464.91;5053400;28;20029;-65
2023/10/24 01:21:45;;;;;;;20.58;8.27;;;;;;;14.88;86.55;100499.75;5035354;28;20093;-65
2023/10/24 01:24:14;;;;;;;20.13;8.20;;;;;;;14.97;84.38;100501.66;5053575;28;20021;-65
2023/10/24 01:26:41;;;;;;;25.55;9.30;;;;;;;14.46;84.35;100415.72;5052993;28;20029;-66
2023/10/24 01:29:10;;;;;;;21.75;8.70;;;;;;;14.83;85.78;100465.00;5033976;28;20037;-65
2023/10/24 01:31:36;;;;;;;27.08;11.68;;;;;;;14.57;84.54;100432.41;5035116;28;20040;-65
2023/10/24 01:34:02;;;;;;;25.48;8.38;;;;;;;15.07;85.17;100511.38;5053143;28;20028;-66
2023/10/24 01:36:27;;;;;;;27.35;10.00;;;;;;;15.06;85.29;100506.16;5053401;28;20025;-65
2023/10/24 01:38:52;;;;;;;23.83;10.93;;;;;;;14.99;85.12;100507.75;5053117;28;20027;-65
2023/10/24 01:41:18;;;;;;;26.65;12.38;;;;;;;14.82;84.67;100510.03;5052499;28;20122;-66
2023/10/24 01:43:44;;;;;;;32.08;11.60;;;;;;;14.90;84.75;100513.63;5052773;28;20032;-65
2023/10/24 01:46:09;;;;;;;32.95;12.32;;;;;;;14.64;84.88;100468.91;5035069;28;20029;-66
2023/10/24 01:48:35;;;;;;;27.23;10.55;;;;;;;14.90;84.94;100507.56;5052828;28;20122;-66
2023/10/24 01:51:00;;;;;;;22.23;10.18;;;;;;;14.76;85.11;100508.16;5017088;28;20509;-65
2023/10/24 01:53:26;;;;;;;24.20;9.38;;;;;;;14.71;85.49;100515.00;5052699;28;20398;-66
2023/10/24 01:55:51;;;;;;;18.23;9.15;;;;;;;14.14;86.56;100443.63;5052174;28;20053;-67
2023/10/24 01:58:17;;;;;;;24.58;8.10;;;;;;;14.44;86.77;100492.72;5052653;28;20021;-66
2023/10/24 02:00:42;;;;;;;21.92;8.30;;;;;;;14.56;86.62;100513.78;5053003;28;20420;-65
2023/10/24 02:03:08;;;;;;;17.40;7.32;;;;;;;14.57;86.62;100514.69;5052664;28;20031;-66
2023/10/24 02:05:33;;;;;;;18.65;7.07;;;;;;;13.96;86.16;100408.63;5052506;28;20029;-66
2023/10/24 02:07:59;;;;;;;21.67;6.72;;;;;;;14.60;85.47;100504.34;5052263;28;20468;-65
2023/10/24 02:10:24;;;;;;;20.00;7.38;;;;;;;14.69;85.41;100507.16;5052227;28;20403;-66
2023/10/24 02:12:50;;;;;;;17.10;6.53;;;;;;;14.71;85.41;100518.44;5052290;28;20391;-64
2023/10/24 02:15:15;;;;;;;22.15;7.50;;;;;;;14.70;85.30;100527.13;5033187;28;20419;-66
2023/10/24 02:17:41;;;;;;;17.85;6.90;;;;;;;14.67;84.94;100506.25;5051984;28;20067;-64
2023/10/24 02:20:08;;;;;;;16.98;7.30;;;;;;;14.69;85.28;100509.78;5052293;28;20021;-64
2023/10/24 02:22:33;;;;;;;20.55;6.70;;;;;;;14.71;85.15;100513.25;5051829;28;20469;-66
2023/10/24 02:24:59;;;;;;;21.20;6.60;;;;;;;14.57;85.19;100497.34;5052095;28;20040;-66
2023/10/24 02:27:24;;;;;;;18.58;6.55;;;;;;;14.70;86.79;100515.84;5051963;28;20024;-65
2023/10/24 02:29:50;;;;;;;18.58;7.10;;;;;;;14.51;87.31;100484.22;5052078;28;20406;-67
2023/10/24 02:32:15;;;;;;;18.85;6.80;;;;;;;14.69;86.88;100519.28;5052097;28;20017;-65
2023/10/24 02:34:41;;;;;;;19.63;7.18;;;;;;;14.51;86.82;100483.38;5051934;28;20082;-63
2023/10/24 02:37:06;;;;;;;21.02;7.68;;;;;;;14.69;88.23;100507.16;5052104;28;20017;-65
2023/10/24 02:39:32;;;;;;;19.40;8.40;;;;;;;14.68;89.04;100514.94;5051237;28;20028;-64
2023/10/24 02:41:57;;;;;;;18.15;7.18;;;;;;;14.54;88.72;100493.81;5051820;28;20025;-65
2023/10/24 02:44:22;;;;;;;24.30;9.45;;;;;;;14.51;88.10;100509.34;5033791;28;20021;-65
2023/10/24 02:46:48;;;;;;;21.00;8.13;;;;;;;14.55;87.23;100518.94;5051617;28;20887;-65
2023/10/24 02:49:14;;;;;;;24.38;9.48;;;;;;;14.57;86.44;100509.47;5051732;28;20033;-64
2023/10/24 02:51:40;;;;;;;23.48;8.90;;;;;;;14.51;86.21;100504.16;5051480;28;20098;-64
2023/10/24 02:54:05;;;;;;;25.15;8.68;;;;;;;14.52;86.05;100521.50;5051608;28;20033;-66
2023/10/24 02:56:31;;;;;;;18.17;8.55;;;;;;;14.54;87.46;100523.28;5051396;28;20053;-65
2023/10/24 02:58:56;;;;;;;21.67;8.35;;;;;;;14.47;88.72;100526.59;5051120;28;20090;-66
2023/10/24 03:01:22;;;;;;;20.02;8.23;;;;;;;14.42;88.88;100520.41;5033479;28;20111;-66
2023/10/24 03:03:47;;;;;;;15.43;7.40;;;;;;;14.43;87.52;100526.47;5051484;28;20040;-65
2023/10/24 03:06:17;;;;;;;17.30;7.90;;;;;;;14.37;87.20;100522.03;5051295;28;20438;-64
2023/10/24 03:08:42;;;;;;;;;;;;;;;14.35;88.29;100524.56;5051682;28;20025;-65
2023/10/24 03:11:08;;;;;;;24.83;7.43;;;;;;;14.25;89.16;100517.44;5051055;28;19939;-64
2023/10/24 03:13:33;;;;;;;20.45;6.47;;;;;;;14.19;89.86;100525.06;5051116;28;20036;-65
2023/10/24 03:16:06;;;;;;;15.05;6.55;;;;;;;14.19;90.99;100527.69;5051393;28;20025;-65
2023/10/24 03:18:33;;;;;;;16.20;7.25;;;;;;;14.11;91.73;100540.47;5051067;28;20044;-64
2023/10/24 03:21:00;;;;;;;16.63;7.40;;;;;;;13.82;92.84;100519.91;5050888;28;20107;-65
2023/10/24 03:23:25;;;;;;;20.65;8.13;;;;;;;13.72;94.63;100549.03;5033022;28;20483;-65
2023/10/24 03:25:52;;;;;;;15.80;7.03;;;;;;;13.75;95.16;100544.81;5051178;28;20090;-65
2023/10/24 03:28:17;;;;;;;21.98;8.00;;;;;;;13.82;94.73;100545.84;5033041;28;20481;-65
2023/10/24 03:30:43;;;;;;;21.77;8.10;;;;;;;13.35;94.54;100455.59;5050924;28;20025;-65
2023/10/24 03:33:09;;;;;;;21.27;8.77;;;;;;;13.79;93.62;100526.72;5050648;28;20029;-66
2023/10/24 03:35:36;;;;;;;20.05;8.23;;;;;;;13.89;93.06;100542.56;5050557;28;20021;-66
2023/10/24 03:38:02;;;;;;;21.13;7.85;;;;;;;13.96;92.38;100532.34;5050872;28;20190;-66
2023/10/24 03:40:28;;;;;;;17.92;7.93;;;;;;;13.89;91.74;100545.16;5050571;28;20033;-64
2023/10/24 03:42:54;;;;;;;20.60;8.32;;;;;;;13.63;91.95;100502.13;5050683;28;20037;-65
2023/10/24 03:45:20;;;;;;;20.83;8.95;;;;;;;13.87;91.60;100540.78;5050575;28;20032;-66
2023/10/24 03:47:46;;;;;;;26.35;10.10;;;;;;;13.89;91.39;100532.19;5050478;28;20079;-65
2023/10/24 03:50:13;;;;;;;20.65;9.38;;;;;;;13.87;91.45;100533.88;5049561;28;20028;-68
2023/10/24 03:52:39;;;;;;;20.48;8.23;;;;;;;13.40;92.16;100447.97;5069246;28;20028;-64
2023/10/24 03:55:05;;;;;;;20.08;8.25;;;;;;;13.87;92.44;100525.22;5070309;28;20044;-69
2023/10/24 03:57:30;;;;;;;20.95;7.53;;;;;;;13.79;92.52;100530.19;5070412;28;20058;-69
2023/10/24 03:59:56;;;;;;;19.65;7.38;;;;;;;13.68;92.82;100527.34;5070406;28;20099;-64
2023/10/24 04:02:21;;;;;;;13.43;6.60;;;;;;;13.61;93.44;100529.72;5070366;28;20560;-65
2023/10/24 04:04:47;;;;;;;15.40;6.40;;;;;;;13.64;93.36;100538.47;5070003;28;20024;-66
2023/10/24 04:07:13;;;;;;;15.70;7.05;;;;;;;13.75;92.84;100531.81;5068918;28;20108;-65
2023/10/24 04:09:38;;;;;;;18.77;7.68;;;;;;;13.84;92.47;100532.91;5069817;28;20119;-65
2023/10/24 04:12:04;;;;;;;21.35;8.07;;;;;;;13.41;92.30;100457.50;5069797;28;20028;-66
2023/10/24 04:14:30;;;;;;;20.52;7.70;;;;;;;13.86;92.36;100528.66;5068446;28;20042;-65
2023/10/24 04:16:56;;;;;;;18.45;7.03;;;;;;;13.73;92.21;100536.13;5069317;28;20040;-65
2023/10/24 04:19:21;;;;;;;19.80;7.63;;;;;;;13.70;92.73;100541.22;5069563;28;20024;-66
2023/10/24 04:21:47;;;;;;;19.77;7.55;;;;;;;13.67;93.28;100532.47;5069962;28;20036;-65
2023/10/24 04:24:12;;;;;;;20.52;7.55;;;;;;;13.66;94.50;100539.41;5070133;28;20025;-65
2023/10/24 04:26:39;;;;;;;20.65;7.97;;;;;;;13.70;94.62;100537.75;5070126;28;20082;-65
2023/10/24 04:29:05;;;;;;;23.48;8.10;;;;;;;13.29;94.00;100459.75;5069916;28;20414;-68
2023/10/24 04:31:31;;;;;;;24.20;8.50;;;;;;;13.74;93.46;100539.59;5069731;28;20040;-66
2023/10/24 04:33:56;;;;;;;24.15;9.57;;;;;;;13.62;93.63;100542.75;5026475;28;20491;-66
2023/10/24 04:36:21;;;;;;;19.38;7.88;;;;;;;12.98;94.04;100451.16;5027527;28;20065;-65
2023/10/24 04:38:47;;;;;;;20.33;8.05;;;;;;;12.96;94.46;100461.50;5027319;28;20034;-65
2023/10/24 04:41:12;;;;;;;19.40;7.78;;;;;;;13.47;94.77;100552.72;5027350;28;20025;-66
2023/10/24 04:43:38;;;;;;;21.67;8.27;;;;;;;13.46;94.72;100550.97;5026866;28;20045;-65
2023/10/24 04:46:03;;;;;;;16.98;8.05;;;;;;;13.45;94.97;100559.59;5028483;28;20037;-66
2023/10/24 04:48:29;;;;;;;17.70;8.63;;;;;;;12.97;94.81;100471.00;5028033;28;20046;-65
2023/10/24 04:50:54;;;;;;;21.70;8.40;;;;;;;13.49;94.89;100562.28;5019084;28;20041;-65
2023/10/24 04:53:20;;;;;;;25.95;8.55;;;;;;;13.57;93.90;100572.88;5031357;28;20041;-65
2023/10/24 04:55:45;;;;;;;18.08;7.78;;;;;;;13.42;93.17;100558.66;5031305;28;20061;-65
2023/10/24 04:58:11;;;;;;;17.48;7.65;;;;;;;13.53;93.09;100582.31;5031591;28;20025;-65
2023/10/24 05:00:37;;;;;;;21.73;8.15;;;;;;;13.50;93.17;100578.75;5031597;28;20103;-65
2023/10/24 05:03:02;;;;;;;24.08;11.07;;;;;;;13.27;92.26;100582.44;4998411;28;20037;-64
2023/10/24 05:05:28;;;;;;;24.17;10.77;;;;;;;13.15;92.11;100587.28;5047163;28;20656;-66
2023/10/24 05:07:53;;;;;;;28.10;9.93;;;;;;;12.62;91.63;100496.78;5053952;28;20025;-67
2023/10/24 05:10:20;;;;;;;24.02;9.82;;;;;;;13.24;90.89;100600.47;5034650;28;20531;-65
2023/10/24 05:12:45;;;;;;;27.13;9.20;;;;;;;13.21;90.69;100589.19;5052460;28;20029;-65
2023/10/24 05:15:10;;;;;;;27.08;9.13;;;;;;;13.19;91.09;100583.06;5052708;28;20048;-66
2023/10/24 05:17:36;;;;;;;32.13;8.80;;;;;;;13.32;91.65;100592.94;5045490;28;20029;-68
2023/10/24 05:20:03;;;;;;;22.98;8.48;;;;;;;13.38;91.83;100624.28;5045903;28;20025;-65
2023/10/24 05:22:30;;;;;;;18.02;8.73;;;;;;;13.45;92.58;100629.63;5051455;28;20108;-65
2023/10/24 05:24:55;;;;;;;25.25;9.02;;;;;;;13.48;93.44;100637.47;5050797;28;20052;-65
2023/10/24 05:27:21;;;;;;;19.05;8.13;;;;;;;12.94;94.14;100546.06;5051710;28;20387;-62
2023/10/24 05:29:46;;;;;;;15.15;7.43;;;;;;;13.42;95.33;100636.47;5053104;28;20029;-67
2023/10/24 05:32:12;;;;;;;18.25;8.98;;;;;;;13.37;95.72;100640.66;5053108;28;20040;-65
2023/10/24 05:34:38;;;;;;;20.48;8.48;;;;;;;13.46;96.15;100639.13;5050319;28;20111;-65
2023/10/24 05:37:04;;;;;;;19.10;8.25;;;;;;;13.50;96.24;100644.47;5053113;28;20098;-66
2023/10/24 05:39:30;;;;;;;17.88;8.20;;;;;;;13.50;96.30;100644.47;5053062;28;20080;-65
2023/10/24 05:41:56;;;;;;;18.25;8.70;;;;;;;13.55;96.09;100642.88;5052803;28;20086;-65
2023/10/24 05:44:22;;;;;;;20.00;8.07;;;;;;;13.59;95.89;100651.63;5050701;28;20040;-66
2023/10/24 05:46:47;;;;;;;16.73;7.97;;;;;;;13.63;95.84;100650.00;5051686;28;20456;-67
2023/10/24 05:49:12;;;;;;;20.17;9.35;;;;;;;13.71;95.66;100659.75;5049757;28;20040;-66
2023/10/24 05:51:38;;;;;;;23.90;9.02;;;;;;;13.79;95.41;100661.66;5052519;28;20025;-66
2023/10/24 05:54:03;;;;;;;20.83;9.30;;;;;;;13.37;95.65;100582.69;5052620;28;20033;-65
2023/10/24 05:56:31;;;;;;;22.25;11.60;;;;;;;13.80;96.17;100666.88;5062021;28;20041;-65
2023/10/24 05:58:56;;;;;;;26.42;14.00;;;;;;;13.74;96.86;100654.66;5072607;28;20099;-65
2023/10/24 06:01:22;;;;;;;25.70;14.85;;;;;;;13.89;97.00;100674.03;5072256;28;20089;-65
2023/10/24 06:03:47;;;;;;;26.25;14.07;;;;;;;13.85;96.75;100659.25;5072404;28;20080;-65
2023/10/24 06:06:13;;;;;;;30.90;15.07;;;;;;;14.03;96.59;100671.81;5072311;28;20470;-66
2023/10/24 06:08:39;;;;;;;25.10;12.88;;;;;;;14.17;95.96;100674.78;5072344;28;20028;-65
2023/10/24 06:11:05;;;;;;;24.40;12.38;;;;;;;14.19;95.66;100662.69;5072513;28;20024;-66
2023/10/24 06:13:34;;;;;;;21.40;10.68;;;;;;;14.42;94.92;100676.25;5071156;28;20466;-66
2023/10/24 06:16:10;;;;;;;26.17;10.65;;;;;;;14.37;94.86;100663.16;5072255;28;20021;-66
2023/10/24 06:18:36;;;;;;;23.52;11.25;;;;;;;14.46;94.43;100664.22;5054623;28;20532;-65
2023/10/24 06:21:08;;;;;;;31.75;11.65;;;;;;;14.54;95.07;100692.16;5072438;28;20059;-66
2023/10/24 06:23:35;;;;;;;23.77;11.85;;;;;;;14.42;95.21;100657.19;5072247;28;20025;-66
2023/10/24 06:26:01;;;;;;;26.63;11.88;;;;;;;14.72;95.20;100690.88;5072006;28;20024;-65
2023/10/24 06:28:26;;;;;;;27.05;11.77;;;;;;;14.84;94.94;100685.06;5072075;28;20043;-65
2023/10/24 06:30:59;;;;;;;23.17;10.65;;;;;;;14.97;94.82;100687.09;5071956;28;20039;-64
2023/10/24 06:33:26;;;;;;;29.70;11.18;;;;;;;15.13;94.48;100683.13;5072062;28;20028;-65
2023/10/24 06:35:52;;;;;;;31.67;11.20;;;;;;;15.30;93.50;100691.28;5071812;28;20532;-64
2023/10/24 06:38:17;;;;;;;24.95;11.55;;;;;;;15.49;92.35;100676.06;5072056;28;20028;-66
2023/10/24 06:40:46;;;;;;;26.88;12.18;;;;;;;15.63;91.85;100674.59;5072010;28;20498;-66
2023/10/24 06:43:12;;;;;;;23.43;11.63;;;;;;;15.83;90.66;100674.13;5071523;28;20017;-65
2023/10/24 06:45:38;;;;;;;23.80;11.45;;;;;;;16.03;89.55;100684.91;5059621;28;20423;-64
2023/10/24 06:48:06;;;;;;;30.27;10.57;;;;;;;16.22;89.77;100690.44;5051673;28;20048;-65
2023/10/24 06:50:32;;;;;;;29.08;12.65;;;;;;;16.38;88.94;100682.03;5051835;28;20467;-64
2023/10/24 06:52:59;;;;;;;31.00;12.20;;;;;;;16.27;87.74;100627.13;5051339;28;20478;-65
2023/10/24 06:55:24;;;;;;;22.73;11.18;;;;;;;16.66;86.88;100672.94;5051537;28;20049;-64
2023/10/24 06:57:51;;;;;;;29.25;10.80;;;;;;;16.87;85.93;100689.72;5051557;28;20036;-65
2023/10/24 07:00:17;;;;;;;24.25;11.35;;;;;;;16.90;85.58;100658.50;5051309;28;20024;-66
2023/10/24 07:02:43;;;;;;;24.95;9.55;;;;;;;17.24;84.56;100689.41;5051209;28;20466;-65
2023/10/24 07:05:08;;;;;;;35.00;10.10;;;;;;;17.39;84.58;100700.03;5051237;28;20029;-65
2023/10/24 07:07:35;;;;;;;29.80;9.98;;;;;;;16.91;83.38;100600.31;5051297;28;20039;-65
2023/10/24 07:10:01;;;;;;;30.42;9.88;;;;;;;17.65;83.38;100688.19;5050514;28;20025;-66
2023/10/24 07:12:27;;;;;;;20.70;8.52;;;;;;;17.81;82.44;100687.47;5050831;28;20025;-63
2023/10/24 07:14:53;;;;;;;25.10;9.48;;;;;;;17.98;81.35;100677.25;5033210;28;20457;-66
2023/10/24 07:17:19;;;;;;;19.55;8.20;;;;;;;18.07;81.45;100672.09;5050863;28;20047;-64
2023/10/24 07:19:45;;;;;;;20.85;9.23;;;;;;;18.21;80.80;100673.97;5051046;28;20359;-66
2023/10/24 07:22:10;;;;;;;24.85;8.95;;;;;;;18.30;80.34;100660.09;5051158;28;20044;-65
2023/10/24 07:24:36;;;;;;;23.15;8.43;;;;;;;18.46;79.89;100667.19;5051103;28;20029;-64
2023/10/24 07:27:03;;;;;;;19.08;10.23;;;;;;;18.43;79.26;100651.50;5050859;28;20122;-70
2023/10/24 07:29:29;;;;;;;24.20;9.55;;;;;;;18.62;79.89;100670.81;5050913;28;20025;-65
2023/10/24 07:31:54;;;;;;;22.55;8.80;;;;;;;18.73;79.30;100676.13;5050704;28;20036;-66
2023/10/24 07:34:20;;;;;;;27.40;8.70;;;;;;;18.77;78.33;100677.88;5050673;28;20036;-65
2023/10/24 07:36:45;;;;;;;18.00;7.50;;;;;;;18.86;77.65;100667.47;5050943;28;20037;-66
2023/10/24 07:39:14;;;;;;;29.27;8.80;;;;;;;18.57;78.01;100594.94;5050844;28;20121;-66
2023/10/24 07:41:39;;;;;;;34.25;8.63;;;;;;;18.91;78.07;100660.53;5050273;28;20671;-66
2023/10/24 07:44:05;;;;;;;23.20;7.80;;;;;;;19.15;77.28;100658.94;5050801;28;20032;-64
2023/10/24 07:46:31;;;;;;;26.73;8.05;;;;;;;19.22;76.84;100667.69;5050444;28;20028;-66
2023/10/24 07:48:59;;;;;;;24.85;7.22;;;;;;;18.94;75.90;100598.66;5050577;28;20029;-66
2023/10/24 07:51:27;;;;;;;28.73;7.33;;;;;;;19.42;75.53;100652.06;5049924;28;20134;-66
2023/10/24 07:53:54;;;;;;;18.00;6.80;;;;;;;19.59;74.97;100648.59;5050326;28;20267;-65
2023/10/24 07:56:19;;;;;;;25.00;7.93;;;;;;;19.69;77.64;100645.16;5049946;28;20521;-65
2023/10/24 07:58:45;;;;;;;27.35;8.65;;;;;;;19.79;80.46;100639.06;5050376;28;20025;-66
2023/10/24 08:01:11;;;;;;;24.77;7.82;;;;;;;19.90;76.68;100652.22;5032422;28;20032;-64
2023/10/24 08:03:36;;;;;;;23.98;8.35;;;;;;;19.63;74.33;100582.28;5050262;28;20074;-65
2023/10/24 08:06:03;;;;;;;26.95;8.20;;;;;;;20.06;77.80;100641.75;5050290;28;20024;-67
2023/10/24 08:08:29;;;;;;;20.15;7.72;;;;;;;19.93;77.40;100594.56;5050184;28;20024;-66
2023/10/24 08:10:55;;;;;;;21.67;7.28;;;;;;;20.30;75.33;100628.63;5049619;28;20119;-65
2023/10/24 08:13:20;;;;;;;20.67;6.63;;;;;;;20.44;76.05;100633.88;5050092;28;20029;-65
2023/10/24 08:15:48;;;;;;;19.75;7.28;;;;;;;20.53;75.89;100620.72;5050229;28;20025;-65
2023/10/24 08:18:13;;;;;;;20.70;7.25;;;;;;;20.63;72.54;100629.47;5050225;28;20142;-65
2023/10/24 08:20:39;;;;;;;20.65;6.78;;;;;;;20.78;70.66;100623.34;5049646;28;20116;-64
2023/10/24 08:23:04;;;;;;;23.75;5.50;;;;;;;20.48;68.32;100550.81;5050166;28;20029;-64
2023/10/24 08:25:31;;;;;;;20.63;6.43;;;;;;;20.92;66.67;100593.56;5049806;28;20542;-65
2023/10/24 08:27:56;;;;;;;18.70;5.03;;;;;;;21.12;66.50;100602.22;5049917;28;20029;-63
2023/10/24 08:30:22;;;;;;;19.48;5.55;;;;;;;21.16;65.82;100597.84;5049880;28;20375;-64
2023/10/24 08:32:47;;;;;;;19.27;5.13;;;;;;;21.31;65.08;100602.16;5049983;28;20021;-66
2023/10/24 08:35:13;;;;;;;24.33;6.18;;;;;;;21.38;65.34;100597.72;5049776;28;20021;-65
2023/10/24 08:37:38;;;;;;;14.23;5.40;;;;;;;21.46;65.50;100604.69;5055584;28;20463;-65
2023/10/24 08:40:04;;;;;;;17.35;5.38;;;;;;;21.58;63.56;100589.75;5049559;28;20032;-68
2023/10/24 08:42:30;;;;;;;15.85;5.50;;;;;;;21.70;63.74;100588.81;5049691;28;20036;-67
2023/10/24 08:44:57;;;;;;;17.08;5.70;;;;;;;21.87;62.91;100586.91;5048043;28;20047;-65
2023/10/24 08:47:23;;;;;;;14.15;5.55;;;;;;;22.03;62.94;100589.41;5069855;28;20036;-65
2023/10/24 08:49:50;;;;;;;14.38;5.70;;;;;;;22.19;63.00;100585.75;5069779;28;20033;-65
2023/10/24 08:52:16;;;;;;;18.25;5.32;;;;;;;22.18;63.12;100581.41;5069345;28;20107;-66
2023/10/24 08:54:41;;;;;;;21.88;5.60;;;;;;;22.19;62.38;100571.75;5069423;28;20128;-65
2023/10/24 08:57:07;;;;;;;16.92;5.30;;;;;;;22.16;61.77;100559.50;5069257;28;20488;-64
2023/10/24 08:59:37;;;;;;;20.83;6.45;;;;;;;22.39;61.71;100576.84;5069981;28;20087;-64
2023/10/24 09:02:03;;;;;;;18.83;5.05;;;;;;;22.48;60.18;100571.50;5069746;28;20569;-65
2023/10/24 09:04:31;;;;;;;22.05;5.60;;;;;;;22.53;59.55;100561.78;5069283;28;20103;-65
2023/10/24 09:06:57;;;;;;;21.10;7.18;;;;;;;22.74;59.03;100571.19;5034954;28;20120;-66
2023/10/24 09:09:23;;;;;;;25.17;7.15;;;;;;;22.62;58.93;100534.50;5069552;28;20081;-70
2023/10/24 09:11:56;;;;;;;16.33;5.68;;;;;;;22.85;58.99;100562.28;5069391;28;20407;-71
2023/10/24 09:14:24;;;;;;;17.27;5.10;;;;;;;22.89;58.29;100553.47;5069169;28;20033;-66
2023/10/24 09:16:55;;;;;;;20.73;6.03;;;;;;;23.08;59.46;100564.66;5069411;28;20535;-64
2023/10/24 09:19:23;;;;;;;24.23;6.28;;;;;;;22.57;57.79;100474.03;5016666;28;20518;-66
2023/10/24 09:21:50;;;;;;;18.73;5.57;;;;;;;23.09;57.75;100554.09;5069490;28;20474;-65
2023/10/24 09:24:17;;;;;;;17.30;4.80;;;;;;;22.89;56.71;100500.81;5069574;28;20059;-65
2023/10/24 09:26:54;;;;;;;20.48;6.43;;;;;;;23.26;56.87;100543.34;5068907;28;20036;-65
2023/10/24 09:29:20;;;;;;;18.17;6.10;;;;;;;23.01;57.05;100482.22;5069201;28;20035;-65
2023/10/24 09:31:49;;;;;;;24.15;5.63;;;;;;;23.48;55.21;100542.13;5068952;28;20025;-63
2023/10/24 09:34:18;;;;;;;20.02;6.53;;;;;;;23.46;55.55;100539.53;5069900;28;20036;-66
2023/10/24 09:36:45;;;;;;;16.85;5.47;;;;;;;23.53;54.99;100524.50;5072509;28;20507;-70
2023/10/24 09:39:12;;;;;;;17.83;5.53;;;;;;;23.69;54.98;100536.53;5054441;28;20077;-65
2023/10/24 09:41:46;;;;;;;22.70;5.75;;;;;;;23.41;55.33;100463.22;5073199;28;20492;-66
2023/10/24 09:44:12;;;;;;;17.58;5.63;;;;;;;23.77;54.40;100507.41;5072211;28;20514;-65
2023/10/24 09:46:38;;;;;;;14.98;5.07;;;;;;;23.97;54.85;100504.44;5072202;28;20077;-67
2023/10/24 09:49:06;;;;;;;18.88;5.40;;;;;;;24.07;54.01;100513.06;5072338;28;20469;-67
2023/10/24 09:51:35;;;;;;;18.27;5.20;;;;;;;24.03;53.54;100504.34;5072152;28;20024;-67
2023/10/24 09:54:02;;;;;;;18.35;5.75;;;;;;;24.13;53.29;100512.09;5072243;28;20016;-66
2023/10/24 09:56:28;;;;;;;21.48;6.57;;;;;;;24.19;52.81;100499.66;5072118;28;20056;-65
2023/10/24 09:58:54;;;;;;;15.30;5.82;;;;;;;24.33;52.31;100502.03;5069329;28;20121;-66
2023/10/24 10:01:21;;;;;;;17.30;5.53;;;;;;;24.41;52.34;100509.78;5071866;28;20036;-65
2023/10/24 10:03:51;;;;;;;14.05;4.70;;;;;;;24.60;51.17;100498.84;5053999;28;20387;-67
2023/10/24 10:06:17;;;;;;;22.17;5.03;;;;;;;24.61;50.37;100501.47;5069692;28;20017;-66
2023/10/24 10:08:42;;;;;;;18.20;4.97;;;;;;;24.72;50.47;100488.06;5071842;28;20040;-66
2023/10/24 10:11:08;;;;;;;17.85;5.38;;;;;;;24.88;49.50;100488.59;5071666;28;20032;-66
2023/10/24 10:13:38;;;;;;;22.40;5.43;;;;;;;24.98;50.07;100484.00;5069300;28;20033;-66
2023/10/24 10:16:23;;;;;;;18.13;4.75;;;;;;;25.00;49.63;100490.13;5071718;28;20506;-66
2023/10/24 10:18:58;;;;;;;20.75;5.57;;;;;;;25.09;51.38;100478.47;5071138;28;20028;-67
2023/10/24 10:21:29;;;;;;;17.02;5.00;;;;;;;25.06;48.91;100471.50;5053597;28;20497;-65
2023/10/24 10:24:28;;;;;;;21.15;5.45;;;;;;;25.06;49.86;100467.97;5068779;28;20024;-66
2023/10/24 10:27:18;;;;;;;18.55;5.13;;;;;;;25.16;48.68;100459.78;5068570;28;20029;-65
2023/10/24 10:29:50;;;;;;;24.85;5.13;;;;;;;25.26;48.45;100457.81;5070228;28;20034;-67
2023/10/24 10:32:38;;;;;;;21.02;5.22;;;;;;;25.25;48.64;100450.78;5024888;28;20079;-65
2023/10/24 10:35:04;;;;;;;18.48;4.97;;;;;;;25.18;48.70;100452.72;5069739;28;20032;-65
2023/10/24 10:37:35;;;;;;;15.55;4.40;;;;;;;25.26;48.01;100449.00;5071179;28;20506;-67
2023/10/24 10:40:24;;;;;;;18.95;5.40;;;;;;;25.25;47.01;100448.13;5071428;28;20025;-65
2023/10/24 10:42:51;;;;;;;19.42;4.80;;;;;;;25.32;49.36;100448.84;5016915;28;20088;-65
2023/10/24 10:45:30;;;;;;;15.00;4.78;;;;;;;25.41;47.50;100443.38;5009424;28;20512;-66
2023/10/24 10:48:04;;;;;;;23.92;5.15;;;;;;;25.56;47.68;100428.00;5017116;28;20069;-66
2023/10/24 10:50:32;;;;;;;27.48;8.88;;;;;;;25.51;46.66;100430.81;5025253;28;20125;-66
2023/10/24 10:53:03;;;;;;;21.02;8.52;;;;;;;25.08;47.53;100357.88;5021840;28;20029;-66
2023/10/24 10:55:38;;;;;;;24.60;5.75;;;;;;;25.54;47.91;100414.84;5025573;28;20134;-66
2023/10/24 10:58:23;;;;;;;17.48;4.53;;;;;;;25.54;47.21;100416.63;5022611;28;20037;-66
2023/10/24 11:01:33;;;;;;;12.65;4.18;;;;;;;25.67;47.02;100410.97;5019979;28;20132;-64
2023/10/24 11:03:59;;;;;;;21.83;5.22;;;;;;;25.72;46.92;100409.97;5002808;28;20535;-65
2023/10/24 11:06:27;;;;;;;12.95;3.97;;;;;;;25.83;46.23;100413.19;5009029;28;20099;-64
2023/10/24 11:09:13;;;;;;;20.48;5.75;;;;;;;25.92;46.75;100410.31;5008815;28;20049;-65
2023/10/24 11:11:39;;;;;;;14.88;4.70;;;;;;;26.00;45.73;100407.44;4989836;28;20047;-65
2023/10/24 11:14:19;;;;;;;28.52;12.45;;;;;;;25.87;45.08;100393.72;4988701;28;20677;-65
2023/10/24 11:16:48;;;;;;;18.83;5.55;;;;;;;26.00;45.39;100387.13;4993499;28;20042;-66